Time;durP1;ratioP1;P1;durP2;ratioP2;P2;SDS_P1;SDS_P2;PMS_P1;PMS_P2;Temp;Humidity;BMP_temperature;BMP_pressure;BME280_temperature;BME280_humidity;BME280_pressure;Samples;Min_cycle;Max_cycle;Signal;HPM_P1;HPM_P2
2022/06/19 00:01:48;;;;;;;5.30;3.20;;;;;;;20.91;61.59;99704.41;5145181;22;20207;-71
2022/06/19 00:04:15;;;;;;;8.47;3.00;;;;;;;20.88;61.70;99699.44;5145808;22;20202;-71
2022/06/19 00:06:43;;;;;;;6.53;2.90;;;;;;;20.87;61.79;99708.63;5149884;22;20756;-71
2022/06/19 00:09:10;;;;;;;7.93;3.00;;;;;;;20.87;61.72;99711.34;5155539;22;20209;-72
2022/06/19 00:11:39;;;;;;;7.00;3.20;;;;;;;20.90;61.92;99713.56;5130846;22;20205;-73
2022/06/19 00:14:07;;;;;;;4.77;3.03;;;;;;;20.88;61.89;99715.66;5130979;22;22120;-72
2022/06/19 00:16:34;;;;;;;9.97;3.57;;;;;;;20.79;62.09;99717.91;5123489;22;20201;-70
2022/06/19 00:19:01;;;;;;;6.63;2.83;;;;;;;20.78;62.49;99715.41;5143672;22;20205;-72
2022/06/19 00:21:28;;;;;;;4.90;3.20;;;;;;;20.60;64.12;99719.81;5130397;22;20208;-69
2022/06/19 00:23:54;;;;;;;6.13;2.90;;;;;;;20.68;63.15;99720.56;5140443;22;20209;-71
2022/06/19 00:26:21;;;;;;;6.43;3.10;;;;;;;20.55;63.68;99719.63;5149653;22;20302;-70
2022/06/19 00:28:47;;;;;;;8.77;3.57;;;;;;;20.54;63.96;99715.28;5138647;22;26345;-72
2022/06/19 00:31:14;;;;;;;5.70;3.37;;;;;;;20.54;63.64;99714.47;5163967;22;20209;-70
2022/06/19 00:33:42;;;;;;;11.90;3.33;;;;;;;20.54;64.09;99723.41;5142040;22;20252;-69
2022/06/19 00:36:09;;;;;;;10.23;3.33;;;;;;;20.62;63.45;99717.69;5119502;22;21186;-71
2022/06/19 00:38:36;;;;;;;11.43;3.70;;;;;;;20.67;63.00;99714.31;5142341;22;20213;-69
2022/06/19 00:41:03;;;;;;;9.33;3.20;;;;;;;20.71;62.95;99718.19;5153254;22;20201;-72
2022/06/19 00:43:29;;;;;;;5.83;3.17;;;;;;;20.69;63.20;99720.31;5148328;22;20212;-71
2022/06/19 00:46:24;;;;;;;6.77;3.00;;;;;;;20.70;62.82;99723.81;5146308;22;20968;-70
2022/06/19 00:48:51;;;;;;;9.53;3.23;;;;;;;20.41;64.38;99732.47;5164886;22;20343;-71
2022/06/19 00:51:18;;;;;;;5.83;2.90;;;;;;;20.32;64.88;99733.03;5178197;22;25044;-71
2022/06/19 00:53:46;;;;;;;4.77;3.10;;;;;;;20.29;65.31;99733.47;5156987;22;21253;-70
2022/06/19 00:56:18;;;;;;;7.57;3.43;;;;;;;20.34;65.06;99739.84;5155095;22;20197;-70
2022/06/19 00:58:47;;;;;;;5.97;3.00;;;;;;;20.47;64.41;99732.66;5164846;22;21815;-71
2022/06/19 01:01:18;;;;;;;10.47;3.30;;;;;;;20.34;64.79;99741.72;5161129;22;20342;-70
2022/06/19 01:03:53;;;;;;;4.57;3.10;;;;;;;20.32;64.92;99738.41;5149126;22;20288;-71
2022/06/19 01:06:21;;;;;;;6.73;3.13;;;;;;;20.23;65.41;99743.31;5142294;22;20295;-70
2022/06/19 01:08:49;;;;;;;6.23;3.33;;;;;;;20.23;65.87;99741.44;5133126;22;25983;-70
2022/06/19 01:11:17;;;;;;;6.57;3.07;;;;;;;20.15;65.82;99747.13;5148170;22;21180;-72
2022/06/19 01:13:44;;;;;;;8.30;3.47;;;;;;;19.97;66.67;99747.97;5136093;22;20742;-71
2022/06/19 01:16:11;;;;;;;4.73;3.20;;;;;;;19.93;66.83;99745.94;5114506;22;25118;-74
2022/06/19 01:18:39;;;;;;;7.63;3.37;;;;;;;19.87;67.37;99746.81;5146376;22;20210;-72
2022/06/19 01:21:32;;;;;;;6.63;3.20;;;;;;;19.79;68.01;99746.03;5120427;22;20204;-63
2022/06/19 01:24:08;;;;;;;6.63;3.20;;;;;;;19.72;68.43;99742.59;5109893;22;20625;-65
2022/06/19 01:26:40;;;;;;;9.83;3.30;;;;;;;19.80;68.26;99746.88;5111346;22;20254;-64
2022/06/19 01:29:08;;;;;;;7.83;3.20;;;;;;;19.65;68.60;99749.88;5119346;22;20228;-65
2022/06/19 01:31:47;;;;;;;6.23;3.57;;;;;;;19.52;69.37;99755.41;5096459;22;20277;-63
2022/06/19 01:34:28;;;;;;;5.43;3.40;;;;;;;19.46;69.86;99751.72;5103394;22;20260;-64
2022/06/19 01:37:26;;;;;;;6.10;3.70;;;;;;;19.39;69.89;99740.97;5121587;22;21158;-74
2022/06/19 01:40:07;;;;;;;5.57;3.37;;;;;;;19.39;70.32;99750.94;5100504;22;20204;-73
2022/06/19 01:42:33;;;;;;;9.37;3.77;;;;;;;19.23;70.65;99748.78;5103845;22;22024;-73
2022/06/19 01:45:00;;;;;;;5.50;3.33;;;;;;;19.11;71.43;99745.97;5124360;22;20276;-73
2022/06/19 01:47:27;;;;;;;5.37;3.40;;;;;;;19.12;71.34;99744.91;5116357;22;20431;-74
2022/06/19 01:49:55;;;;;;;5.97;3.43;;;;;;;19.09;71.38;99745.34;5116910;22;20284;-74
2022/06/19 01:52:23;;;;;;;5.60;3.50;;;;;;;19.07;72.04;99752.81;5113343;22;20209;-72
2022/06/19 01:54:55;;;;;;;9.63;3.57;;;;;;;19.06;72.06;99756.53;5146104;22;20587;-73
2022/06/19 01:57:22;;;;;;;7.20;3.73;;;;;;;19.11;71.97;99754.06;5117801;22;20272;-75
2022/06/19 01:59:50;;;;;;;9.70;3.57;;;;;;;19.03;72.20;99741.63;5111066;22;20329;-73
2022/06/19 02:02:18;;;;;;;5.97;3.57;;;;;;;19.06;72.53;99746.59;5110360;22;21735;-74
2022/06/19 02:04:45;;;;;;;5.47;4.13;;;;;;;19.13;72.38;99743.88;5128202;22;20244;-74
2022/06/19 02:07:21;;;;;;;5.77;3.43;;;;;;;19.21;72.29;99749.00;5136365;22;20201;-73
2022/06/19 02:09:48;;;;;;;9.47;4.03;;;;;;;19.18;72.20;99746.75;5112322;22;22032;-73
2022/06/19 02:12:15;;;;;;;8.07;4.43;;;;;;;19.13;72.78;99743.88;5121652;22;20202;-74
2022/06/19 02:14:42;;;;;;;7.33;4.03;;;;;;;19.08;73.13;99738.28;5141784;22;21495;-73
2022/06/19 02:17:17;;;;;;;5.00;3.63;;;;;;;19.08;73.15;99738.28;5131120;22;20205;-74
2022/06/19 02:19:44;;;;;;;8.80;4.33;;;;;;;19.04;73.58;99743.31;5153243;22;21180;-74
2022/06/19 02:22:12;;;;;;;7.67;4.50;;;;;;;18.96;73.76;99736.31;5176689;22;20202;-73
2022/06/19 02:24:39;;;;;;;7.93;4.00;;;;;;;19.01;73.63;99732.97;5154286;22;20212;-73
2022/06/19 02:27:06;;;;;;;10.00;3.90;;;;;;;19.05;73.70;99728.75;5152089;22;20439;-73
2022/06/19 02:29:34;;;;;;;7.10;4.10;;;;;;;19.15;73.16;99722.88;5131527;22;20783;-73
2022/06/19 02:32:01;;;;;;;9.70;4.30;;;;;;;19.27;72.59;99726.53;5119125;22;20212;-75
2022/06/19 02:34:37;;;;;;;9.20;4.00;;;;;;;19.25;72.72;99727.81;5127503;22;20233;-73
2022/06/19 02:37:21;;;;;;;6.87;3.80;;;;;;;19.32;72.45;99729.41;5148743;22;20201;-74
2022/06/19 02:40:13;;;;;;;7.83;3.73;;;;;;;19.38;72.10;99714.19;5188216;22;22797;-74
2022/06/19 02:42:44;;;;;;;6.00;4.13;;;;;;;19.38;71.96;99722.28;5192555;22;20207;-74
2022/06/19 02:45:20;;;;;;;7.13;3.97;;;;;;;19.42;71.76;99722.69;5167516;22;20203;-75
2022/06/19 02:47:48;;;;;;;8.57;4.33;;;;;;;19.36;71.90;99724.38;5189474;22;20296;-73
2022/06/19 02:50:22;;;;;;;8.70;4.10;;;;;;;19.32;72.10;99712.41;5153482;22;20220;-73
2022/06/19 02:52:49;;;;;;;5.50;3.70;;;;;;;19.44;71.89;99716.03;5200202;22;20211;-73
2022/06/19 02:55:16;;;;;;;8.93;4.27;;;;;;;19.51;71.67;99710.56;5159173;22;22252;-71
2022/06/19 02:57:43;;;;;;;8.40;3.67;;;;;;;19.49;71.63;99708.09;5168594;22;21550;-74
2022/06/19 03:00:17;;;;;;;6.97;3.87;;;;;;;19.50;71.32;99703.50;5137150;22;21234;-71
2022/06/19 03:02:44;;;;;;;5.50;3.83;;;;;;;19.52;71.35;99704.13;5205228;22;20197;-72
2022/06/19 03:05:18;;;;;;;8.33;4.13;;;;;;;19.54;71.33;99702.03;5136726;22;20408;-73
2022/06/19 03:07:44;;;;;;;7.30;3.70;;;;;;;19.62;70.77;99707.16;5169281;22;20300;-74
2022/06/19 03:10:11;;;;;;;5.63;3.67;;;;;;;19.64;70.40;99710.44;5127694;22;20201;-72
2022/06/19 03:12:39;;;;;;;7.53;3.50;;;;;;;19.44;71.35;99707.09;5123565;22;20197;-71
2022/06/19 03:15:06;;;;;;;8.57;3.70;;;;;;;19.39;71.80;99700.50;5149904;22;20432;-73
2022/06/19 03:17:33;;;;;;;6.67;3.50;;;;;;;19.42;71.83;99703.81;5123695;22;20249;-73
2022/06/19 03:20:00;;;;;;;6.90;4.03;;;;;;;19.45;71.53;99700.66;5161099;22;20199;-71
2022/06/19 03:22:27;;;;;;;6.30;3.77;;;;;;;19.56;71.33;99706.16;5172404;22;21214;-72
2022/06/19 03:24:53;;;;;;;5.47;4.00;;;;;;;19.61;70.74;99700.91;5146753;22;20247;-74
2022/06/19 03:27:20;;;;;;;7.13;3.80;;;;;;;19.74;70.27;99697.31;5153324;22;21451;-72
2022/06/19 03:29:47;;;;;;;6.37;4.03;;;;;;;19.72;70.36;99691.28;5158074;22;21682;-75
2022/06/19 03:32:14;;;;;;;7.97;3.67;;;;;;;19.76;70.08;99692.50;5134520;22;21647;-72
2022/06/19 03:34:42;;;;;;;8.97;3.70;;;;;;;19.89;69.78;99694.22;5136250;22;21391;-72
2022/06/19 03:37:09;;;;;;;8.80;4.07;;;;;;;19.91;69.44;99696.72;5132693;22;20198;-74
2022/06/19 03:39:35;;;;;;;7.77;3.90;;;;;;;19.99;68.86;99696.41;5164163;22;20995;-73
2022/06/19 03:42:02;;;;;;;6.37;3.97;;;;;;;20.00;69.21;99707.00;5145587;22;20614;-72
2022/06/19 03:44:29;;;;;;;5.80;3.43;;;;;;;19.99;69.16;99699.09;5118115;22;21303;-73
2022/06/19 03:46:56;;;;;;;9.03;4.07;;;;;;;20.08;68.77;99705.84;5160489;22;20205;-72
2022/06/19 03:49:22;;;;;;;7.70;3.80;;;;;;;20.07;68.78;99700.69;5129655;22;20269;-72
2022/06/19 03:51:49;;;;;;;7.10;3.80;;;;;;;20.10;68.67;99703.75;5133964;22;20207;-75
2022/06/19 03:54:15;;;;;;;7.17;3.43;;;;;;;20.21;68.48;99711.13;5144631;22;20721;-72
2022/06/19 03:56:42;;;;;;;6.87;3.87;;;;;;;20.30;68.12;99705.41;5151513;22;20260;-72
2022/06/19 03:59:12;;;;;;;6.00;3.60;;;;;;;20.36;67.78;99705.31;5157345;22;25497;-74
2022/06/19 04:01:40;;;;;;;7.33;4.27;;;;;;;20.29;67.94;99701.06;5150925;22;20236;-74
2022/06/19 04:04:08;;;;;;;6.63;3.60;;;;;;;20.44;67.55;99712.31;5130211;22;20736;-71
2022/06/19 04:06:37;;;;;;;6.63;3.83;;;;;;;20.50;67.32;99703.28;5134975;22;21356;-73
2022/06/19 04:09:06;;;;;;;4.23;3.50;;;;;;;20.70;66.69;99702.19;5140265;22;20230;-74
2022/06/19 04:11:33;;;;;;;8.80;3.67;;;;;;;20.78;66.46;99704.59;5131473;22;20213;-74
2022/06/19 04:14:00;;;;;;;6.73;3.50;;;;;;;20.83;66.16;99694.72;5145410;22;20237;-73
2022/06/19 04:16:29;;;;;;;9.13;4.30;;;;;;;20.91;65.94;99687.34;5131953;22;20205;-72
2022/06/19 04:18:58;;;;;;;6.67;3.80;;;;;;;20.95;65.61;99683.94;5144543;22;20383;-75
2022/06/19 04:21:26;;;;;;;5.90;3.80;;;;;;;20.84;65.69;99692.88;5120208;22;22747;-73
2022/06/19 04:23:56;;;;;;;7.40;3.87;;;;;;;20.92;65.85;99684.41;5129235;22;21706;-73
2022/06/19 04:26:25;;;;;;;8.57;4.50;;;;;;;21.02;65.00;99684.66;5161693;22;23374;-73
2022/06/19 04:28:51;;;;;;;7.77;5.00;;;;;;;21.12;65.05;99677.84;5133340;22;23031;-72
2022/06/19 04:31:18;;;;;;;9.40;5.37;;;;;;;21.21;64.50;99681.88;5130363;22;20213;-73
2022/06/19 04:33:45;;;;;;;12.03;5.60;;;;;;;21.23;64.34;99686.00;5148194;22;20205;-72
2022/06/19 04:36:16;;;;;;;11.00;5.00;;;;;;;21.28;63.99;99683.44;5159380;22;20212;-72
2022/06/19 04:38:44;;;;;;;7.63;4.33;;;;;;;21.46;63.61;99679.81;5138582;22;23279;-73
2022/06/19 04:41:37;;;;;;;7.80;3.80;;;;;;;21.52;63.17;99677.22;5140294;22;20201;-73
2022/06/19 04:44:06;;;;;;;6.93;3.60;;;;;;;21.50;63.30;99678.28;5127487;22;20556;-72
2022/06/19 04:46:33;;;;;;;6.77;4.10;;;;;;;21.53;62.85;99674.28;5156771;22;21747;-74
2022/06/19 04:49:00;;;;;;;6.20;3.63;;;;;;;21.53;63.04;99670.75;5147717;22;20201;-71
2022/06/19 04:51:26;;;;;;;8.07;4.03;;;;;;;21.60;62.74;99668.75;5127338;22;20205;-73
2022/06/19 04:53:53;;;;;;;5.40;3.07;;;;;;;21.64;62.52;99669.94;5143261;22;21158;-74
2022/06/19 04:56:20;;;;;;;8.90;3.30;;;;;;;21.74;61.77;99670.16;5158193;22;20484;-76
2022/06/19 04:58:48;;;;;;;7.07;3.57;;;;;;;21.69;61.80;99662.72;5158769;22;20669;-73
2022/06/19 05:01:22;;;;;;;6.73;3.13;;;;;;;21.80;61.62;99661.09;5118769;22;20205;-73
2022/06/19 05:03:50;;;;;;;7.77;3.97;;;;;;;21.86;61.68;99657.41;5120140;22;20201;-76
2022/06/19 05:06:16;;;;;;;8.73;3.37;;;;;;;22.00;61.02;99665.28;5152351;22;20198;-73
2022/06/19 05:08:42;;;;;;;9.47;2.93;;;;;;;22.22;60.03;99669.03;5159492;22;20210;-72
2022/06/19 05:11:10;;;;;;;5.40;3.40;;;;;;;22.45;59.04;99672.72;5153371;22;20205;-74
2022/06/19 05:13:37;;;;;;;8.03;3.80;;;;;;;22.62;58.77;99668.19;5144730;22;20201;-71
2022/06/19 05:16:15;;;;;;;5.73;3.37;;;;;;;22.75;57.96;99673.28;5162059;22;22300;-73
2022/06/19 05:18:42;;;;;;;8.63;4.13;;;;;;;22.74;57.80;99668.94;5142233;22;21468;-73
2022/06/19 05:21:09;;;;;;;6.83;3.50;;;;;;;23.12;56.76;99674.75;5103398;22;20198;-74
2022/06/19 05:23:42;;;;;;;6.93;3.50;;;;;;;23.44;55.56;99675.00;5122202;22;21221;-74
2022/06/19 05:26:24;;;;;;;7.60;3.63;;;;;;;23.62;55.53;99673.91;5119820;22;20274;-74
2022/06/19 05:28:52;;;;;;;7.47;3.20;;;;;;;23.88;54.08;99680.56;5104380;22;20247;-74
2022/06/19 05:31:19;;;;;;;5.40;3.23;;;;;;;24.11;53.67;99678.66;5143627;22;20210;-74
2022/06/19 05:33:46;;;;;;;7.07;2.97;;;;;;;24.30;52.57;99671.00;5148709;22;20209;-72
2022/06/19 05:36:13;;;;;;;5.70;2.97;;;;;;;24.61;51.95;99670.31;5112109;22;22738;-73
2022/06/19 05:38:39;;;;;;;5.70;2.97;;;;;;;24.68;51.02;99666.53;5115074;22;21544;-72
2022/06/19 05:41:06;;;;;;;8.27;3.20;;;;;;;24.80;50.09;99672.66;5126991;22;22883;-73
2022/06/19 05:43:34;;;;;;;6.47;3.20;;;;;;;24.99;50.07;99675.84;5130217;22;20218;-75
2022/06/19 05:46:12;;;;;;;6.40;3.17;;;;;;;25.56;48.55;99668.94;5108630;22;20202;-75
2022/06/19 05:48:39;;;;;;;9.63;3.30;;;;;;;25.91;47.01;99673.78;5124331;22;21413;-73
2022/06/19 05:51:09;;;;;;;5.23;2.90;;;;;;;26.08;46.29;99681.78;5112620;22;20336;-73
2022/06/19 05:53:38;;;;;;;4.20;2.70;;;;;;;26.20;45.03;99676.09;5124402;22;20468;-72
2022/06/19 05:56:06;;;;;;;5.90;3.13;;;;;;;26.51;44.14;99679.75;5112289;22;20301;-73
2022/06/19 05:58:33;;;;;;;5.57;2.83;;;;;;;26.31;44.35;99675.88;5109968;22;20203;-73
2022/06/19 06:01:00;;;;;;;5.53;2.90;;;;;;;26.86;42.71;99679.03;5109786;22;20213;-74
2022/06/19 06:03:27;;;;;;;4.90;2.70;;;;;;;26.66;42.66;99671.63;5127867;22;20207;-75
2022/06/19 06:05:59;;;;;;;4.40;3.03;;;;;;;27.09;42.17;99674.13;5119283;22;23682;-71
2022/06/19 06:08:26;;;;;;;5.80;3.35;;;;;;;27.34;41.69;99678.78;5118068;22;21198;-74
2022/06/19 06:10:53;;;;;;;4.90;2.83;;;;;;;27.77;40.20;99685.56;5104958;22;21132;-75
2022/06/19 06:13:19;;;;;;;4.77;3.00;;;;;;;28.14;39.38;99678.91;5156885;22;20205;-74
2022/06/19 06:15:47;;;;;;;6.43;2.95;;;;;;;28.52;38.60;99690.25;5159593;22;22784;-72
2022/06/19 06:18:14;;;;;;;8.10;2.80;;;;;;;29.50;37.34;99686.78;5109785;22;21158;-72
2022/06/19 06:20:41;;;;;;;4.23;2.80;;;;;;;29.61;37.07;99682.84;5124212;22;20342;-72
2022/06/19 06:23:08;;;;;;;7.60;2.95;;;;;;;29.61;36.24;99671.88;5154107;22;20209;-71
2022/06/19 06:25:34;;;;;;;7.27;2.73;;;;;;;30.61;34.78;99686.63;5125160;22;20481;-74
2022/06/19 06:28:01;;;;;;;6.35;2.80;;;;;;;30.61;33.71;99683.88;5115424;22;20224;-72
2022/06/19 06:30:27;;;;;;;5.78;2.80;;;;;;;30.75;33.35;99683.94;5145157;22;20209;-73
2022/06/19 06:33:03;;;;;;;4.47;2.57;;;;;;;31.48;32.07;99687.19;5167088;22;21586;-72
2022/06/19 06:35:30;;;;;;;6.10;2.92;;;;;;;31.61;32.21;99688.31;5147750;22;20207;-72
2022/06/19 06:38:00;;;;;;;3.78;2.70;;;;;;;31.79;31.44;99684.69;5134636;22;20207;-72
2022/06/19 06:40:27;;;;;;;4.15;2.60;;;;;;;32.25;30.48;99681.03;5153332;22;20236;-69
2022/06/19 06:42:55;;;;;;;5.05;2.83;;;;;;;32.82;29.71;99688.06;5155102;22;25348;-71
2022/06/19 06:45:21;;;;;;;6.47;2.70;;;;;;;33.26;28.78;99695.56;5127898;22;21769;-71
2022/06/19 06:47:48;;;;;;;7.65;3.03;;;;;;;33.28;28.36;99684.22;5144816;22;20197;-73
2022/06/19 06:50:15;;;;;;;6.53;2.63;;;;;;;33.30;28.57;99688.28;5143269;22;22214;-71
2022/06/19 06:52:41;;;;;;;7.00;2.42;;;;;;;33.09;28.66;99687.19;5159933;22;21361;-73
2022/06/19 06:55:09;;;;;;;7.53;2.85;;;;;;;32.75;29.33;99678.28;5149240;22;25077;-77
2022/06/19 06:57:35;;;;;;;5.45;3.42;;;;;;;32.52;29.66;99684.88;5156122;22;20367;-73
2022/06/19 07:00:03;;;;;;;6.50;2.70;;;;;;;32.78;29.38;99688.69;5156745;22;25228;-74
2022/06/19 07:02:30;;;;;;;8.43;2.85;;;;;;;33.35;28.21;99690.09;5135961;22;20202;-74
2022/06/19 07:04:56;;;;;;;4.60;2.70;;;;;;;33.67;27.95;99700.03;5140892;22;20213;-74
2022/06/19 07:07:23;;;;;;;8.77;2.60;;;;;;;33.96;27.25;99693.97;5135719;22;20205;-74
2022/06/19 07:09:49;;;;;;;6.30;2.53;;;;;;;34.21;27.28;99691.66;5152625;22;20202;-75
2022/06/19 07:12:16;;;;;;;5.28;2.55;;;;;;;33.69;27.81;99683.97;5150762;22;20205;-74
2022/06/19 07:14:43;;;;;;;4.97;2.60;;;;;;;33.22;28.14;99687.09;5139296;22;20212;-63
2022/06/19 07:17:09;;;;;;;6.30;2.55;;;;;;;32.60;29.39;99675.91;5180439;22;25496;-72
2022/06/19 07:19:36;;;;;;;10.27;2.55;;;;;;;31.71;30.72;99671.66;5171905;22;21507;-70
2022/06/19 07:22:03;;;;;;;4.22;2.42;;;;;;;31.61;31.47;99667.16;5163098;22;20267;-73
2022/06/19 07:24:29;;;;;;;6.72;2.75;;;;;;;31.41;31.94;99659.28;5154591;22;22678;-74
2022/06/19 07:26:56;;;;;;;6.78;2.72;;;;;;;31.22;32.62;99648.31;5204153;22;21409;-72
2022/06/19 07:29:23;;;;;;;8.57;2.72;;;;;;;31.26;32.77;99660.34;5189104;22;25418;-70
2022/06/19 07:31:50;;;;;;;5.40;2.60;;;;;;;30.99;32.76;99658.31;5201571;22;20707;-70
2022/06/19 07:34:17;;;;;;;9.65;2.97;;;;;;;31.13;33.24;99650.94;5165851;22;20205;-71
2022/06/19 07:36:50;;;;;;;11.13;2.97;;;;;;;31.06;33.55;99651.31;5180795;22;20293;-71
2022/06/19 07:39:17;;;;;;;6.80;2.97;;;;;;;30.97;33.57;99644.06;5171569;22;20208;-70
2022/06/19 07:41:44;;;;;;;5.28;2.60;;;;;;;30.55;33.94;99652.09;5166700;22;20614;-69
2022/06/19 07:44:10;;;;;;;4.80;2.47;;;;;;;30.50;34.54;99654.91;5167899;22;21143;-69
2022/06/19 07:50:09;;;;;;;7.13;2.95;;;;;;;30.63;34.33;99643.19;5151684;22;20240;-70
2022/06/19 07:52:09;;;;;;;4.40;2.45;;;;;;;30.96;33.65;99645.19;5176215;22;20259;-74
2022/06/19 07:54:36;;;;;;;8.25;2.60;;;;;;;30.87;33.68;99636.81;5181854;22;20691;-71
2022/06/19 07:57:03;;;;;;;5.80;2.60;;;;;;;30.69;33.59;99628.25;5188063;22;20789;-73
2022/06/19 07:59:30;;;;;;;7.85;2.78;;;;;;;30.62;33.89;99630.56;5181467;22;22034;-72
2022/06/19 08:01:56;;;;;;;5.95;2.60;;;;;;;30.42;34.75;99622.66;5184861;22;20240;-71
2022/06/19 08:04:33;;;;;;;5.25;2.83;;;;;;;30.45;34.19;99631.09;5153355;22;20282;-72
2022/06/19 08:07:08;;;;;;;3.83;2.47;;;;;;;30.49;34.01;99628.59;5135845;22;21663;-75
2022/06/19 08:09:35;;;;;;;9.75;2.83;;;;;;;30.57;33.88;99627.91;5163306;22;20268;-74
2022/06/19 08:12:02;;;;;;;7.88;3.05;;;;;;;30.42;34.09;99623.47;5186471;22;21555;-75
2022/06/19 08:14:28;;;;;;;9.88;2.88;;;;;;;30.42;34.05;99622.66;5171073;22;20272;-73
2022/06/19 08:16:55;;;;;;;6.85;2.50;;;;;;;30.48;34.30;99624.19;5142827;22;20201;-73
2022/06/19 08:19:22;;;;;;;6.78;2.78;;;;;;;30.46;34.09;99629.16;5171371;22;26349;-73
2022/06/19 08:21:49;;;;;;;6.35;2.50;;;;;;;30.43;34.10;99627.00;5172488;22;20258;-75
2022/06/19 08:24:17;;;;;;;5.85;2.70;;;;;;;30.45;34.35;99622.03;5153524;22;20294;-74
2022/06/19 08:26:43;;;;;;;6.18;2.80;;;;;;;30.17;34.83;99624.59;5167578;22;20204;-73
2022/06/19 08:29:10;;;;;;;8.23;3.10;;;;;;;30.37;34.04;99622.69;5155910;22;22166;-72
2022/06/19 08:31:37;;;;;;;7.65;2.95;;;;;;;30.22;34.48;99609.97;5140875;22;20383;-72
2022/06/19 08:34:04;;;;;;;12.50;2.70;;;;;;;30.13;34.49;99618.06;5148890;22;25540;-73
2022/06/19 08:36:33;;;;;;;8.18;2.90;;;;;;;30.10;35.15;99615.91;5172648;22;20642;-73
2022/06/19 08:39:03;;;;;;;6.60;2.55;;;;;;;30.22;35.27;99624.50;5161479;22;20371;-72
2022/06/19 08:41:44;;;;;;;7.90;3.05;;;;;;;30.39;34.64;99618.56;5166166;22;20217;-73
2022/06/19 08:44:23;;;;;;;6.30;2.50;;;;;;;30.17;34.21;99613.63;5153413;22;21181;-73
2022/06/19 08:47:27;;;;;;;10.48;3.47;;;;;;;30.13;35.15;99606.25;5175923;22;20209;-74
2022/06/19 08:50:17;;;;;;;7.07;3.10;;;;;;;30.13;34.82;99601.59;5173835;22;20270;-73
2022/06/19 08:52:52;;;;;;;8.50;2.87;;;;;;;30.42;35.16;99603.44;5201274;22;20210;-72
2022/06/19 08:55:37;;;;;;;5.05;2.80;;;;;;;30.45;34.37;99600.09;5125968;22;20248;-72
2022/06/19 08:58:04;;;;;;;8.23;2.60;;;;;;;30.40;34.77;99606.47;5190038;22;21203;-71
2022/06/19 09:00:51;;;;;;;13.60;3.00;;;;;;;30.19;34.82;99600.41;5150167;22;20202;-71
2022/06/19 09:03:29;;;;;;;9.25;3.08;;;;;;;30.27;34.52;99604.44;5125642;22;20205;-74
2022/06/19 09:06:02;;;;;;;6.10;2.78;;;;;;;30.28;34.37;99603.34;5171061;22;20200;-73
2022/06/19 09:08:43;;;;;;;5.00;2.33;;;;;;;30.28;34.64;99603.34;5181116;22;20473;-72
2022/06/19 09:11:32;;;;;;;12.38;2.70;;;;;;;30.31;34.92;99597.25;5167243;22;21609;-74
2022/06/19 09:14:25;;;;;;;8.57;2.80;;;;;;;30.24;34.74;99594.84;5157162;22;20645;-74
2022/06/19 09:17:09;;;;;;;6.30;2.90;;;;;;;30.17;35.27;99586.16;5171727;22;20201;-77
2022/06/19 09:19:46;;;;;;;6.20;2.13;;;;;;;30.29;35.19;99592.06;5107668;22;20201;-76
2022/06/19 09:22:29;;;;;;;6.75;2.45;;;;;;;30.34;34.64;99579.38;5152967;22;20463;-77
2022/06/19 09:25:10;;;;;;;10.50;2.53;;;;;;;30.21;34.22;99591.91;5146838;22;20243;-78
2022/06/19 09:28:01;;;;;;;4.73;2.30;;;;;;;30.27;35.04;99579.75;5147811;22;20208;-76
2022/06/19 09:30:42;;;;;;;6.53;2.78;;;;;;;30.39;34.49;99579.28;5150305;22;21655;-75
2022/06/19 09:33:20;;;;;;;5.35;2.63;;;;;;;30.40;33.54;99569.97;5144379;22;21872;-76
2022/06/19 09:35:59;;;;;;;8.15;2.72;;;;;;;30.41;34.01;99572.38;5138480;22;20598;-73
2022/06/19 09:38:43;;;;;;;8.40;2.45;;;;;;;30.27;34.76;99564.13;5120992;22;20201;-72
2022/06/19 09:41:18;;;;;;;7.85;2.53;;;;;;;30.19;34.79;99564.75;5147635;22;20300;-78
2022/06/19 09:43:52;;;;;;;7.43;2.58;;;;;;;30.25;34.88;99566.31;5175904;22;24727;-73
2022/06/19 09:46:39;;;;;;;10.95;2.72;;;;;;;30.47;34.61;99567.66;5130416;22;22647;-76
2022/06/19 09:49:16;;;;;;;11.52;2.80;;;;;;;30.67;34.38;99563.75;5136685;22;21311;-73
2022/06/19 09:51:55;;;;;;;8.18;3.08;;;;;;;30.83;34.63;99565.13;5128842;22;21209;-74
2022/06/19 09:54:31;;;;;;;5.53;2.67;;;;;;;30.81;33.56;99552.81;5168714;22;20208;-74
2022/06/19 09:57:11;;;;;;;7.55;2.65;;;;;;;30.97;33.81;99554.19;5126606;22;20424;-75
2022/06/19 09:59:47;;;;;;;9.13;2.60;;;;;;;30.89;32.80;99554.91;5156544;22;20337;-74
2022/06/19 10:02:30;;;;;;;11.30;2.85;;;;;;;30.88;32.14;99556.84;5119904;22;21694;-78
2022/06/19 10:05:23;;;;;;;8.20;2.30;;;;;;;30.85;32.18;99551.13;5136104;22;20205;-76
2022/06/19 10:07:56;;;;;;;7.38;2.50;;;;;;;30.83;31.87;99553.31;5199734;22;20286;-78
2022/06/19 10:10:26;;;;;;;10.65;2.60;;;;;;;30.76;32.58;99555.66;5136712;22;20428;-75
2022/06/19 10:12:53;;;;;;;8.27;2.42;;;;;;;30.81;32.47;99552.81;5132976;22;20209;-75
2022/06/19 10:15:29;;;;;;;4.38;2.20;;;;;;;31.01;32.83;99546.97;5129178;22;20242;-77
2022/06/19 10:18:13;;;;;;;10.25;2.58;;;;;;;31.24;32.66;99544.38;5133497;22;20280;-73
2022/06/19 10:20:53;;;;;;;7.47;2.70;;;;;;;31.26;31.61;99545.69;5146066;22;25511;-72
2022/06/19 10:23:45;;;;;;;6.82;2.60;;;;;;;31.17;32.02;99542.03;5137296;22;20278;-74
2022/06/19 10:26:24;;;;;;;7.57;2.70;;;;;;;31.05;32.71;99531.53;5171478;22;20210;-71
2022/06/19 10:29:10;;;;;;;8.98;2.55;;;;;;;31.25;31.97;99537.75;5158236;22;20202;-74
2022/06/19 10:32:05;;;;;;;10.90;2.28;;;;;;;31.43;32.00;99533.31;5162026;22;20257;-71
2022/06/19 10:34:48;;;;;;;8.95;2.45;;;;;;;31.50;31.00;99537.28;5156479;22;20544;-72
2022/06/19 10:37:53;;;;;;;7.28;2.50;;;;;;;31.74;31.68;99531.53;5133521;22;20201;-70
2022/06/19 10:40:41;;;;;;;6.95;2.53;;;;;;;31.78;30.27;99528.19;5154871;22;20216;-73
2022/06/19 10:43:25;;;;;;;8.13;2.10;;;;;;;31.80;30.64;99526.75;5134095;22;25296;-68
2022/06/19 10:45:53;;;;;;;7.90;2.50;;;;;;;31.86;30.88;99527.44;5164378;22;20201;-68
2022/06/19 10:48:45;;;;;;;8.32;2.42;;;;;;;32.03;30.45;99518.56;5162696;22;22002;-69
2022/06/19 10:51:24;;;;;;;14.32;2.35;;;;;;;32.06;30.66;99515.19;5169787;22;22489;-69
2022/06/19 10:54:11;;;;;;;9.55;2.40;;;;;;;31.96;31.11;99519.81;5177009;22;20214;-69
2022/06/19 10:57:10;;;;;;;7.05;2.28;;;;;;;31.95;30.89;99514.56;5153890;22;20212;-71
2022/06/19 10:59:37;;;;;;;6.35;2.28;;;;;;;32.13;30.51;99519.16;5170469;22;20309;-68
2022/06/19 11:05:28;;;;;;;9.60;2.60;;;;;;;32.55;29.96;99499.72;5148791;22;21729;-68
2022/06/19 11:07:55;;;;;;;5.55;2.38;;;;;;;32.31;29.29;99503.59;5119581;22;22315;-68
2022/06/19 11:10:42;;;;;;;6.53;2.30;;;;;;;32.13;29.78;99497.13;5177562;22;20203;-69
2022/06/19 11:13:09;;;;;;;7.75;2.58;;;;;;;31.89;28.55;99500.13;5152492;22;23081;-68
2022/06/19 11:15:45;;;;;;;9.48;2.67;;;;;;;31.88;28.41;99505.94;5124875;22;20566;-69
2022/06/19 11:18:15;;;;;;;8.68;2.30;;;;;;;31.80;28.15;99490.97;5170478;22;20249;-69
2022/06/19 11:21:01;;;;;;;12.32;2.30;;;;;;;31.73;29.34;99482.34;5173692;22;20708;-68
2022/06/19 11:23:34;;;;;;;8.75;2.53;;;;;;;31.89;29.32;99485.53;5178594;22;20201;-68
2022/06/19 11:26:08;;;;;;;9.90;2.47;;;;;;;31.84;28.33;99472.72;5150591;22;20246;-68
2022/06/19 11:28:41;;;;;;;8.00;2.20;;;;;;;31.79;28.88;99475.56;5161324;22;20282;-69
2022/06/19 11:31:12;;;;;;;12.13;2.55;;;;;;;31.82;29.35;99465.88;5149681;22;21627;-68
2022/06/19 11:33:40;;;;;;;5.03;2.22;;;;;;;31.89;29.37;99458.84;5134251;22;21229;-68
2022/06/19 11:36:12;;;;;;;10.77;2.50;;;;;;;31.92;29.45;99463.72;5147699;22;20205;-68
2022/06/19 11:38:44;;;;;;;9.43;2.17;;;;;;;31.99;29.17;99451.50;5150664;22;20205;-67
2022/06/19 11:41:46;;;;;;;9.32;2.35;;;;;;;32.08;29.58;99449.66;5138058;22;20248;-71
2022/06/19 11:44:19;;;;;;;6.63;2.33;;;;;;;32.12;28.93;99454.22;5121673;23;20249;-67
2022/06/19 11:46:50;;;;;;;7.20;2.25;;;;;;;32.25;28.74;99465.47;5133187;22;20201;-68
2022/06/19 11:49:36;;;;;;;9.05;2.05;;;;;;;32.15;29.23;99463.78;5151707;22;20349;-70
2022/06/19 11:52:16;;;;;;;9.82;2.40;;;;;;;32.21;29.57;99461.72;5165560;22;20213;-69
2022/06/19 11:54:46;;;;;;;8.10;2.40;;;;;;;32.05;28.87;99462.06;5143310;22;20668;-69
2022/06/19 11:57:25;;;;;;;11.90;2.85;;;;;;;32.18;28.80;99452.94;5145053;22;20749;-70
2022/06/19 11:59:56;;;;;;;5.55;2.30;;;;;;;32.23;29.16;99456.69;5172412;22;22199;-71